createdAt,value
2022-10-28T00:01:14.957Z,16.50
2022-10-28T00:03:44.225Z,16.40
2022-10-28T00:06:13.311Z,16.40
2022-10-28T00:08:40.283Z,16.40
2022-10-28T00:11:18.482Z,16.40
2022-10-28T00:13:46.088Z,16.50
2022-10-28T00:16:15.349Z,16.40
2022-10-28T00:18:42.327Z,16.50
2022-10-28T00:21:11.815Z,16.40
2022-10-28T00:23:39.090Z,16.40
2022-10-28T00:26:13.943Z,16.50
2022-10-28T00:28:45.577Z,16.50
2022-10-28T00:31:13.461Z,16.50
2022-10-28T00:33:40.161Z,16.40
2022-10-28T00:36:09.115Z,16.40
2022-10-28T00:38:36.388Z,16.40
2022-10-28T00:41:03.531Z,16.40
2022-10-28T00:43:50.663Z,16.40
2022-10-28T00:46:40.810Z,16.30
2022-10-28T00:49:31.949Z,16.20
2022-10-28T00:52:01.989Z,16.20
2022-10-28T00:54:29.656Z,16.20
2022-10-28T00:56:57.446Z,16.20
2022-10-28T00:59:32.136Z,16.10
2022-10-28T01:01:59.457Z,16.10
2022-10-28T01:04:26.610Z,16.00
2022-10-28T01:06:53.776Z,16.00
2022-10-28T01:09:20.825Z,16.10
2022-10-28T01:12:00.010Z,16.00
2022-10-28T01:14:30.563Z,16.00
2022-10-28T01:17:00.194Z,16.00
2022-10-28T01:19:52.071Z,16.00
2022-10-28T01:22:21.999Z,16.00
2022-10-28T01:25:26.106Z,16.00
2022-10-28T01:28:14.076Z,15.90
2022-10-28T01:31:06.379Z,15.90
2022-10-28T01:33:39.866Z,15.80
2022-10-28T01:36:17.968Z,15.80
2022-10-28T01:39:01.203Z,15.80
2022-10-28T01:41:36.083Z,15.90
2022-10-28T01:44:14.963Z,15.90
2022-10-28T01:46:47.813Z,15.90
2022-10-28T01:49:19.326Z,15.90
2022-10-28T01:51:57.377Z,15.90
2022-10-28T01:54:26.277Z,15.90
2022-10-28T01:56:53.527Z,15.90
2022-10-28T01:59:23.123Z,15.90
2022-10-28T02:01:50.456Z,15.90
2022-10-28T02:04:17.615Z,15.90
2022-10-28T02:06:46.059Z,15.90
2022-10-28T02:09:44.092Z,15.90
2022-10-28T02:12:28.624Z,15.90
2022-10-28T02:15:19.225Z,15.90
2022-10-28T02:18:17.004Z,15.80
2022-10-28T02:20:53.988Z,15.80
2022-10-28T02:23:41.083Z,15.80
2022-10-28T02:26:10.798Z,15.80
2022-10-28T02:29:18.194Z,15.70
2022-10-28T02:32:14.681Z,15.70
2022-10-28T02:34:43.793Z,15.70
2022-10-28T02:37:16.497Z,15.70
2022-10-28T02:39:47.176Z,15.70
2022-10-28T02:42:45.554Z,15.70
2022-10-28T02:45:16.245Z,15.70
2022-10-28T02:48:04.965Z,15.70
2022-10-28T02:50:38.086Z,15.60
2022-10-28T02:53:11.141Z,15.60
2022-10-28T02:55:40.608Z,15.60
2022-10-28T02:58:07.665Z,15.60
2022-10-28T03:00:35.097Z,15.50
2022-10-28T03:03:02.602Z,15.50
2022-10-28T03:05:29.659Z,15.50
2022-10-28T03:07:56.934Z,15.50
2022-10-28T03:10:38.829Z,15.40
2022-10-28T03:13:06.292Z,15.40
2022-10-28T03:15:33.784Z,15.40
2022-10-28T03:18:00.439Z,15.40
2022-10-28T03:20:27.930Z,15.30
2022-10-28T03:22:55.870Z,15.30
2022-10-28T03:25:23.339Z,15.30
2022-10-28T03:27:50.396Z,15.30
2022-10-28T03:30:18.426Z,15.20
2022-10-28T03:32:45.677Z,15.20
2022-10-28T03:35:13.518Z,15.20
2022-10-28T03:37:44.057Z,15.20
2022-10-28T03:40:12.706Z,15.20
2022-10-28T03:43:02.470Z,15.20
2022-10-28T03:47:57.132Z,15.10
2022-10-28T03:50:25.222Z,15.10
2022-10-28T03:52:52.714Z,15.10
2022-10-28T03:55:19.558Z,15.10
2022-10-28T03:57:46.953Z,15.10
2022-10-28T04:00:14.466Z,15.10
2022-10-28T04:02:41.506Z,15.10
2022-10-28T04:05:08.831Z,15.10
2022-10-28T04:07:36.350Z,15.10
2022-10-28T04:10:03.955Z,15.10
2022-10-28T04:12:31.271Z,15.10
2022-10-28T04:14:58.566Z,15.10
2022-10-28T04:17:26.031Z,15.10
2022-10-28T04:19:52.911Z,15.10
2022-10-28T04:22:20.148Z,15.10
2022-10-28T04:24:47.181Z,15.10
2022-10-28T04:27:14.271Z,15.10
2022-10-28T04:29:41.577Z,15.10
2022-10-28T04:32:09.767Z,15.10
2022-10-28T04:34:36.983Z,15.10
2022-10-28T04:37:04.399Z,15.10
2022-10-28T04:39:31.939Z,15.10
2022-10-28T04:41:59.396Z,15.10
2022-10-28T04:44:28.076Z,15.10
2022-10-28T04:46:56.911Z,15.10
2022-10-28T04:49:24.251Z,15.10
2022-10-28T04:51:51.302Z,15.10
2022-10-28T04:54:19.207Z,15.10
2022-10-28T04:56:46.592Z,15.00
2022-10-28T04:59:14.056Z,15.00
2022-10-28T05:01:41.523Z,15.00
2022-10-28T05:04:09.215Z,15.00
2022-10-28T05:06:37.083Z,15.00
2022-10-28T05:09:04.911Z,15.00
2022-10-28T05:11:31.677Z,15.00
2022-10-28T05:13:59.345Z,15.00
2022-10-28T05:16:26.385Z,15.00
2022-10-28T05:18:53.578Z,15.00
2022-10-28T05:21:20.602Z,14.90
2022-10-28T05:23:47.695Z,14.90
2022-10-28T05:26:15.163Z,14.90
2022-10-28T05:28:43.243Z,14.90
2022-10-28T05:31:10.319Z,14.80
2022-10-28T05:33:37.291Z,14.80
2022-10-28T05:36:04.959Z,14.70
2022-10-28T05:38:32.142Z,14.70
2022-10-28T05:40:59.548Z,14.70
2022-10-28T05:43:26.764Z,14.70
2022-10-28T05:45:54.893Z,14.60
2022-10-28T05:48:21.995Z,14.50
2022-10-28T05:50:50.282Z,14.50
2022-10-28T05:53:17.713Z,14.50
2022-10-28T05:55:47.617Z,14.50
2022-10-28T05:58:16.468Z,14.50
2022-10-28T06:00:43.907Z,14.50
2022-10-28T06:03:12.085Z,14.50
2022-10-28T06:05:43.219Z,14.40
2022-10-28T06:08:10.876Z,14.40
2022-10-28T06:10:37.675Z,14.50
2022-10-28T06:13:03.741Z,14.50
2022-10-28T06:15:31.279Z,14.50
2022-10-28T06:17:59.433Z,14.50
2022-10-28T06:20:26.842Z,14.50
2022-10-28T06:22:55.287Z,14.60
2022-10-28T06:25:23.564Z,14.60
2022-10-28T06:27:57.414Z,14.60
2022-10-28T06:30:25.874Z,14.60
2022-10-28T06:32:55.148Z,14.60
2022-10-28T06:35:22.986Z,14.70
2022-10-28T06:38:16.468Z,14.70
2022-10-28T06:40:43.843Z,14.70
2022-10-28T06:43:12.523Z,14.70
2022-10-28T06:45:40.663Z,14.80
2022-10-28T06:48:10.940Z,14.80
2022-10-28T06:50:38.333Z,14.80
2022-10-28T06:53:05.333Z,14.90
2022-10-28T06:55:32.753Z,14.90
2022-10-28T06:58:02.591Z,15.00
2022-10-28T07:02:59.622Z,15.00
2022-10-28T07:05:27.723Z,15.10
2022-10-28T07:08:14.960Z,15.10
2022-10-28T07:10:42.158Z,15.00
2022-10-28T07:13:09.616Z,15.10
2022-10-28T07:15:37.032Z,15.10
2022-10-28T07:18:08.991Z,15.20
2022-10-28T07:20:35.750Z,15.20
2022-10-28T07:23:03.026Z,15.20
2022-10-28T07:25:33.865Z,15.30
2022-10-28T07:28:01.174Z,15.30
2022-10-28T07:30:28.361Z,15.40
2022-10-28T07:32:55.642Z,15.40
2022-10-28T07:35:24.141Z,15.50
2022-10-28T07:37:51.131Z,15.50
2022-10-28T07:40:19.424Z,15.60
2022-10-28T07:42:46.138Z,15.60
2022-10-28T07:45:12.868Z,15.60
2022-10-28T07:47:39.732Z,15.70
2022-10-28T07:50:08.414Z,15.80
2022-10-28T07:52:36.467Z,15.80
2022-10-28T07:55:04.594Z,15.80
2022-10-28T07:57:33.575Z,15.90
2022-10-28T08:00:00.749Z,15.90
2022-10-28T08:02:27.602Z,15.90
2022-10-28T08:04:54.387Z,15.90
2022-10-28T08:07:21.450Z,15.90
2022-10-28T08:09:50.050Z,16.00
2022-10-28T08:12:29.287Z,16.00
2022-10-28T08:14:56.753Z,16.00
2022-10-28T08:17:24.578Z,16.10
2022-10-28T08:19:55.477Z,16.10
2022-10-28T08:22:22.329Z,16.20
2022-10-28T08:24:51.852Z,16.20
2022-10-28T08:27:31.407Z,16.30
2022-10-28T08:29:59.253Z,16.40
2022-10-28T08:32:26.797Z,16.40
2022-10-28T08:34:54.542Z,16.50
2022-10-28T08:37:21.455Z,16.50
2022-10-28T08:39:48.605Z,16.60
2022-10-28T08:45:57.411Z,16.70
2022-10-28T08:48:32.589Z,16.80
2022-10-28T08:51:21.260Z,16.90
2022-10-28T08:53:53.641Z,17.00
2022-10-28T08:56:34.919Z,17.00
2022-10-28T08:59:05.846Z,17.10
2022-10-28T09:01:47.835Z,17.10
2022-10-28T09:04:36.357Z,17.10
2022-10-28T09:07:04.274Z,17.20
2022-10-28T09:09:42.775Z,17.30
2022-10-28T09:12:31.702Z,17.40
2022-10-28T09:15:25.026Z,17.50
2022-10-28T09:18:28.916Z,17.50
2022-10-28T09:20:56.748Z,17.70
2022-10-28T09:23:34.725Z,17.80
2022-10-28T09:26:13.568Z,17.80
2022-10-28T09:32:02.627Z,18.00
2022-10-28T09:34:44.266Z,18.10
2022-10-28T09:37:27.430Z,18.10
2022-10-28T09:39:56.452Z,18.20
2022-10-28T09:42:28.184Z,18.30
2022-10-28T09:45:14.005Z,18.40
2022-10-28T09:47:41.973Z,18.40
2022-10-28T09:50:17.643Z,18.50
2022-10-28T09:53:07.820Z,18.60
2022-10-28T09:55:34.948Z,18.70
2022-10-28T09:58:03.699Z,18.80
2022-10-28T10:00:30.425Z,18.80
2022-10-28T10:02:57.972Z,18.80
2022-10-28T10:05:25.029Z,18.80
2022-10-28T10:07:59.178Z,18.80
2022-10-28T10:10:51.550Z,18.80
2022-10-28T10:13:22.661Z,18.80
2022-10-28T10:15:52.850Z,18.90
2022-10-28T10:18:22.927Z,18.90
2022-10-28T10:20:51.757Z,18.90
2022-10-28T10:23:32.218Z,18.90
2022-10-28T10:26:08.035Z,18.90
2022-10-28T10:28:42.831Z,19.00
2022-10-28T10:31:16.196Z,19.10
2022-10-28T10:33:43.195Z,19.10
2022-10-28T10:36:09.824Z,19.20
2022-10-28T10:38:36.596Z,19.30
2022-10-28T10:41:03.421Z,19.40
2022-10-28T10:43:31.104Z,19.40
2022-10-28T10:46:17.964Z,19.40
2022-10-28T10:48:44.736Z,19.40
2022-10-28T10:51:26.804Z,19.50
2022-10-28T10:53:57.964Z,19.40
2022-10-28T10:56:28.757Z,19.30
2022-10-28T10:58:57.555Z,19.40
2022-10-28T11:01:25.671Z,19.50
2022-10-28T11:04:01.576Z,19.40
2022-10-28T11:06:30.452Z,19.50
2022-10-28T11:09:02.470Z,19.50
2022-10-28T11:11:34.377Z,19.50
2022-10-28T11:14:25.633Z,19.60
2022-10-28T11:16:53.985Z,19.60
2022-10-28T11:19:24.027Z,19.60
2022-10-28T11:22:19.839Z,19.80
2022-10-28T11:25:10.210Z,19.80
2022-10-28T11:27:55.286Z,19.90
2022-10-28T11:30:32.384Z,19.90
2022-10-28T11:33:28.998Z,20.10
2022-10-28T11:36:33.006Z,20.30
2022-10-28T11:39:15.911Z,20.70
2022-10-28T11:42:08.174Z,21.30
2022-10-28T11:44:45.301Z,21.90
2022-10-28T11:47:23.700Z,22.20
2022-10-28T11:50:18.702Z,22.20
2022-10-28T11:52:51.275Z,22.20
2022-10-28T11:55:39.596Z,22.20
2022-10-28T12:01:29.160Z,23.00
2022-10-28T12:04:11.164Z,23.30
2022-10-28T12:07:03.284Z,23.60
2022-10-28T12:09:54.933Z,24.00
2022-10-28T12:13:02.952Z,24.40
2022-10-28T12:15:52.463Z,24.70
2022-10-28T12:18:30.156Z,24.50
2022-10-28T12:21:31.684Z,24.30
2022-10-28T12:23:58.973Z,23.90
2022-10-28T12:26:41.673Z,24.00
2022-10-28T12:29:46.269Z,24.00
2022-10-28T12:32:24.404Z,24.00
2022-10-28T12:34:58.041Z,24.00
2022-10-28T12:37:27.145Z,24.10
2022-10-28T12:40:12.619Z,24.30
2022-10-28T12:42:42.187Z,24.00
2022-10-28T12:45:12.931Z,23.90
2022-10-28T12:47:43.303Z,24.00
2022-10-28T12:50:27.847Z,23.70
2022-10-28T12:53:02.288Z,23.60
2022-10-28T12:55:31.944Z,23.90
2022-10-28T12:58:17.198Z,23.70
2022-10-28T13:00:45.726Z,23.70
2022-10-28T13:03:13.566Z,23.90
2022-10-28T13:06:00.560Z,23.90
2022-10-28T13:11:49.443Z,23.50
2022-10-28T13:14:45.091Z,23.20
2022-10-28T13:17:39.564Z,22.80
2022-10-28T13:20:14.727Z,22.40
2022-10-28T13:22:46.019Z,22.40
2022-10-28T13:25:44.938Z,22.20
2022-10-28T13:28:23.430Z,22.00
2022-10-28T13:30:58.739Z,21.90
2022-10-28T13:33:26.662Z,21.60
2022-10-28T13:36:12.977Z,21.50
2022-10-28T13:38:39.639Z,21.40
2022-10-28T13:41:06.353Z,21.40
2022-10-28T13:43:51.194Z,21.40
2022-10-28T13:46:55.632Z,21.50
2022-10-28T13:49:26.622Z,21.50
2022-10-28T13:52:11.842Z,21.50
2022-10-28T13:54:44.639Z,21.50
2022-10-28T13:57:25.119Z,21.50
2022-10-28T13:59:59.869Z,21.50
2022-10-28T14:02:37.498Z,21.40
2022-10-28T14:05:11.874Z,21.40
2022-10-28T14:07:55.416Z,21.40
2022-10-28T14:10:26.060Z,21.40
2022-10-28T14:12:55.405Z,21.30
2022-10-28T14:15:27.371Z,21.30
2022-10-28T14:18:41.719Z,21.20
2022-10-28T14:21:01.797Z,21.10
2022-10-28T14:23:28.736Z,21.00
2022-10-28T14:25:56.021Z,20.90
2022-10-28T14:28:28.776Z,20.80
2022-10-28T14:31:10.685Z,20.70
2022-10-28T14:33:44.011Z,20.70
2022-10-28T14:36:19.694Z,20.70
2022-10-28T14:39:13.791Z,20.70
2022-10-28T14:41:46.727Z,20.70
2022-10-28T14:44:51.254Z,20.60
2022-10-28T14:47:39.476Z,20.70
2022-10-28T14:50:17.067Z,20.80
2022-10-28T14:52:43.901Z,20.70
2022-10-28T14:55:22.075Z,20.70
2022-10-28T14:57:48.839Z,20.60
2022-10-28T15:00:18.750Z,20.50
2022-10-28T15:02:45.482Z,20.50
2022-10-28T15:05:12.226Z,20.40
2022-10-28T15:07:39.583Z,20.30
2022-10-28T15:10:29.104Z,20.30
2022-10-28T15:12:57.481Z,20.20
2022-10-28T15:15:26.023Z,20.10
2022-10-28T15:17:52.717Z,20.00
2022-10-28T15:20:33.969Z,20.00
2022-10-28T15:23:21.323Z,20.00
2022-10-28T15:26:09.466Z,19.90
2022-10-28T15:28:37.369Z,19.90
2022-10-28T15:31:04.079Z,19.90
2022-10-28T15:33:38.586Z,19.90
2022-10-28T15:36:18.258Z,19.80
2022-10-28T15:38:52.736Z,19.80
2022-10-28T15:41:22.725Z,19.70
2022-10-28T15:43:56.698Z,19.70
2022-10-28T15:46:23.883Z,19.70
2022-10-28T15:48:54.251Z,19.60
2022-10-28T15:51:20.987Z,19.60
2022-10-28T15:53:48.064Z,19.50
2022-10-28T15:56:14.777Z,19.40
2022-10-28T15:58:42.843Z,19.40
2022-10-28T16:01:30.733Z,19.40
2022-10-28T16:03:57.726Z,19.30
2022-10-28T16:06:33.624Z,19.30
2022-10-28T16:09:09.619Z,19.20
2022-10-28T16:11:39.122Z,19.20
2022-10-28T16:14:30.447Z,19.20
2022-10-28T16:17:23.038Z,19.10
2022-10-28T16:19:51.958Z,19.10
2022-10-28T16:22:18.744Z,19.00
2022-10-28T16:24:45.541Z,19.00
2022-10-28T16:27:20.802Z,19.00
2022-10-28T16:29:47.813Z,19.00
2022-10-28T16:32:15.027Z,19.00
2022-10-28T16:34:41.796Z,18.90
2022-10-28T16:37:23.034Z,18.90
2022-10-28T16:39:49.823Z,18.90
2022-10-28T16:42:16.897Z,18.80
2022-10-28T16:44:43.669Z,18.80
2022-10-28T16:47:14.952Z,18.80
2022-10-28T16:49:41.776Z,18.80
2022-10-28T16:52:20.028Z,18.80
2022-10-28T16:54:47.231Z,18.70
2022-10-28T16:57:13.990Z,18.70
2022-10-28T16:59:40.749Z,18.60
2022-10-28T17:02:22.666Z,18.50
2022-10-28T17:04:49.526Z,18.50
2022-10-28T17:07:17.874Z,18.40
2022-10-28T17:09:44.660Z,18.30
2022-10-28T17:12:15.973Z,18.30
2022-10-28T17:14:42.687Z,18.20
2022-10-28T17:17:10.281Z,18.20
2022-10-28T17:19:37.796Z,18.10
2022-10-28T17:22:09.129Z,18.10
2022-10-28T17:24:37.029Z,18.00
2022-10-28T17:27:03.963Z,18.00
2022-10-28T17:29:30.709Z,18.00
2022-10-28T17:31:57.526Z,18.00
2022-10-28T17:34:29.743Z,17.90
2022-10-28T17:36:56.527Z,17.90
2022-10-28T17:39:26.144Z,17.80
2022-10-28T17:41:53.533Z,17.80
2022-10-28T17:44:20.206Z,17.80
2022-10-28T17:46:49.993Z,17.80
2022-10-28T17:49:16.998Z,17.70
2022-10-28T17:51:43.861Z,17.70
2022-10-28T17:54:10.815Z,17.70
2022-10-28T17:56:39.253Z,17.50
2022-10-28T17:59:06.138Z,17.50
2022-10-28T18:01:33.395Z,17.50
2022-10-28T18:04:00.370Z,17.40
2022-10-28T18:06:27.303Z,17.40
2022-10-28T18:08:54.023Z,17.40
2022-10-28T18:11:20.928Z,17.40
2022-10-28T18:13:53.428Z,17.40
2022-10-28T18:16:25.223Z,17.40
2022-10-28T18:18:53.204Z,17.40
2022-10-28T18:21:20.112Z,17.30
2022-10-28T18:23:53.712Z,17.30
2022-10-28T18:26:20.470Z,17.30
2022-10-28T18:28:48.785Z,17.20
2022-10-28T18:31:19.455Z,17.20
2022-10-28T18:33:46.558Z,17.10
2022-10-28T18:36:15.576Z,17.10
2022-10-28T18:38:42.369Z,17.10
2022-10-28T18:41:15.992Z,17.10
2022-10-28T18:43:42.858Z,17.00
2022-10-28T18:46:09.605Z,17.00
2022-10-28T18:48:36.531Z,17.00
2022-10-28T18:51:10.039Z,17.00
2022-10-28T18:53:41.434Z,17.00
2022-10-28T18:56:11.054Z,17.10
2022-10-28T18:58:37.740Z,17.00
2022-10-28T19:01:09.152Z,16.90
2022-10-28T19:03:36.132Z,17.00
2022-10-28T19:06:05.143Z,16.90
2022-10-28T19:08:31.958Z,16.90
2022-10-28T19:10:58.956Z,16.90
2022-10-28T19:13:25.682Z,16.80
2022-10-28T19:15:52.401Z,16.70
2022-10-28T19:18:19.524Z,16.60
2022-10-28T19:20:46.265Z,16.60
2022-10-28T19:23:13.048Z,16.50
2022-10-28T19:25:39.799Z,16.50
2022-10-28T19:28:06.469Z,16.50
2022-10-28T19:30:34.385Z,16.40
2022-10-28T19:33:01.126Z,16.20
2022-10-28T19:35:27.812Z,16.00
2022-10-28T19:37:54.530Z,15.90
2022-10-28T19:40:21.258Z,15.80
2022-10-28T19:42:47.992Z,15.70
2022-10-28T19:45:14.831Z,15.80
2022-10-28T19:47:41.528Z,15.80
2022-10-28T19:50:08.925Z,15.80
2022-10-28T19:52:35.594Z,15.70
2022-10-28T19:55:02.368Z,15.70
2022-10-28T19:57:29.064Z,15.60
2022-10-28T19:59:56.633Z,15.50
2022-10-28T20:02:24.251Z,15.40
2022-10-28T20:04:56.107Z,15.20
2022-10-28T20:07:26.878Z,15.20
2022-10-28T20:09:54.521Z,15.10
2022-10-28T20:12:22.379Z,15.10
2022-10-28T20:14:49.070Z,15.10
2022-10-28T20:17:17.638Z,15.10
2022-10-28T20:19:45.002Z,15.10
2022-10-28T20:22:12.262Z,15.10
2022-10-28T20:24:38.894Z,15.00
2022-10-28T20:27:05.681Z,15.10
2022-10-28T20:29:32.547Z,15.20
2022-10-28T20:31:59.340Z,15.20
2022-10-28T20:34:26.710Z,15.30
2022-10-28T20:36:53.402Z,15.30
2022-10-28T20:39:20.966Z,15.30
2022-10-28T20:41:48.766Z,15.30
2022-10-28T20:44:16.499Z,15.30
2022-10-28T20:46:45.484Z,15.20
2022-10-28T20:49:13.215Z,15.10
2022-10-28T20:51:41.868Z,15.20
2022-10-28T20:54:11.503Z,15.20
2022-10-28T20:56:40.322Z,15.20
2022-10-28T20:59:07.776Z,15.30
2022-10-28T21:01:36.165Z,15.20
2022-10-28T21:04:04.779Z,15.10
2022-10-28T21:06:32.252Z,15.10
2022-10-28T21:09:00.775Z,15.10
2022-10-28T21:11:28.362Z,15.00
2022-10-28T21:13:59.285Z,15.00
2022-10-28T21:16:30.450Z,15.00
2022-10-28T21:18:57.785Z,15.10
2022-10-28T21:21:25.407Z,15.20
2022-10-28T21:23:52.598Z,15.30
2022-10-28T21:26:19.939Z,15.30
2022-10-28T21:28:51.765Z,15.30
2022-10-28T21:31:19.425Z,15.40
2022-10-28T21:33:46.631Z,15.40
2022-10-28T21:36:18.020Z,15.40
2022-10-28T21:38:46.965Z,15.20
2022-10-28T21:41:19.325Z,15.20
2022-10-28T21:43:50.450Z,15.20
2022-10-28T21:46:18.346Z,15.20
2022-10-28T21:48:46.068Z,15.10
2022-10-28T21:51:15.165Z,15.00
2022-10-28T21:53:42.818Z,15.00
2022-10-28T21:56:17.762Z,15.00
2022-10-28T21:58:46.264Z,15.10
2022-10-28T22:01:23.799Z,15.10
2022-10-28T22:03:51.802Z,15.00
2022-10-28T22:06:19.405Z,14.80
2022-10-28T22:08:46.986Z,14.70
2022-10-28T22:11:18.475Z,14.80
2022-10-28T22:13:45.804Z,14.70
2022-10-28T22:16:14.895Z,14.60
2022-10-28T22:18:42.024Z,14.70
2022-10-28T22:21:14.065Z,14.70
2022-10-28T22:23:41.777Z,14.80
2022-10-28T22:26:10.552Z,14.80
2022-10-28T22:28:37.543Z,14.70
2022-10-28T22:31:06.966Z,14.80
2022-10-28T22:33:42.148Z,14.70
2022-10-28T22:36:18.724Z,14.70
2022-10-28T22:38:45.617Z,14.60
2022-10-28T22:41:14.569Z,14.60
2022-10-28T22:43:42.456Z,14.40
2022-10-28T22:46:10.027Z,14.20
2022-10-28T22:48:38.241Z,14.10
2022-10-28T22:51:05.667Z,14.00
2022-10-28T22:53:32.451Z,14.10
2022-10-28T22:55:59.597Z,14.20
2022-10-28T22:58:27.097Z,14.20
2022-10-28T23:00:54.614Z,14.30
2022-10-28T23:03:21.693Z,14.20
2022-10-28T23:05:49.511Z,14.30
2022-10-28T23:08:17.111Z,14.20
2022-10-28T23:10:44.535Z,14.30
2022-10-28T23:13:12.143Z,14.30
2022-10-28T23:15:39.808Z,14.30
2022-10-28T23:18:06.791Z,14.30
2022-10-28T23:20:35.017Z,14.20
2022-10-28T23:23:02.214Z,14.20
2022-10-28T23:25:29.261Z,14.10
2022-10-28T23:27:56.288Z,14.00
2022-10-28T23:30:24.736Z,13.90
2022-10-28T23:32:51.847Z,13.70
2022-10-28T23:35:18.934Z,13.70
2022-10-28T23:37:46.104Z,13.60
2022-10-28T23:40:13.254Z,13.70
2022-10-28T23:42:41.018Z,13.60
2022-10-28T23:45:10.366Z,13.60
2022-10-28T23:47:37.740Z,13.80
2022-10-28T23:50:05.803Z,13.70
2022-10-28T23:52:33.473Z,13.80
2022-10-28T23:55:00.848Z,13.70
2022-10-28T23:57:28.251Z,13.80
2022-10-28T23:59:55.847Z,13.70
